Terminal Aerodrome Forecast
Issued by NWS

Home | Current Version | Previous Version | Text Only | Print | Product List | Glossary On
Versions: 1 2 3 4 5 6 7 8 9 10 11 12 13 14 15 16 17 18 19 20 21 22
000
FTUS43 KDLH 282100 AAB
TAFHYR
TAF AMD
KHYR 282103Z 2821/2918 14011KT 4SM BR SCT015
     FM282200 15007KT 4SM BR OVC005
     FM290200 VRB03KT 5SM -FZDZSN BR OVC007
     FM290800 29009KT 3SM -FZDZSN BR OVC007
     FM291400 32012G22KT 5SM -SN BR SCT007 BKN015 OVC022=

USA.gov is the U.S. government's official web portal to all federal, state and local government web resources and services.